createdAt,value
2023-02-11T00:01:19.946Z,25.23
2023-02-11T00:03:46.972Z,15.97
2023-02-11T00:06:14.090Z,22.13
2023-02-11T00:08:41.092Z,24.93
2023-02-11T00:11:09.938Z,21.20
2023-02-11T00:13:36.953Z,20.17
2023-02-11T00:16:13.836Z,16.83
2023-02-11T00:18:40.855Z,19.13
2023-02-11T00:21:19.458Z,24.53
2023-02-11T00:23:47.515Z,19.07
2023-02-11T00:26:21.413Z,18.03
2023-02-11T00:28:50.781Z,26.63
2023-02-11T00:31:21.364Z,24.13
2023-02-11T00:33:48.950Z,23.60
2023-02-11T00:36:20.180Z,23.63
2023-02-11T00:38:48.562Z,23.20
2023-02-11T00:41:16.862Z,28.03
2023-02-11T00:43:43.956Z,26.63
2023-02-11T00:46:11.388Z,25.20
2023-02-11T00:48:38.509Z,21.03
2023-02-11T00:51:06.150Z,28.07
2023-02-11T00:53:34.282Z,21.23
2023-02-11T00:56:01.383Z,22.07
2023-02-11T00:58:29.900Z,20.90
2023-02-11T01:00:57.374Z,26.77
2023-02-11T01:03:24.449Z,22.60
2023-02-11T01:05:51.928Z,24.10
2023-02-11T01:08:19.680Z,25.77
2023-02-11T01:10:58.439Z,25.03
2023-02-11T01:13:27.368Z,30.17
2023-02-11T01:15:55.826Z,28.23
2023-02-11T01:18:23.293Z,21.87
2023-02-11T01:20:52.375Z,23.37
2023-02-11T01:23:19.854Z,24.17
2023-02-11T01:25:47.723Z,21.77
2023-02-11T01:28:21.938Z,31.33
2023-02-11T01:30:49.337Z,22.00
2023-02-11T01:33:16.714Z,19.70
2023-02-11T01:35:44.594Z,30.67
2023-02-11T01:38:24.585Z,25.70
2023-02-11T01:40:58.482Z,35.93
2023-02-11T01:43:27.669Z,20.00
2023-02-11T01:46:25.068Z,23.70
2023-02-11T01:48:59.311Z,23.97
2023-02-11T01:51:53.277Z,21.30
2023-02-11T01:54:43.392Z,21.87
2023-02-11T01:57:22.563Z,25.73
2023-02-11T02:00:05.211Z,19.40
2023-02-11T02:02:50.839Z,20.37
2023-02-11T02:05:20.622Z,26.07
2023-02-11T02:08:07.359Z,21.87
2023-02-11T02:10:36.857Z,24.13
2023-02-11T02:13:03.987Z,23.70
2023-02-11T02:15:34.394Z,20.13
2023-02-11T02:18:31.931Z,21.43
2023-02-11T02:21:33.950Z,18.10
2023-02-11T02:24:42.162Z,21.80
2023-02-11T02:27:26.029Z,22.63
2023-02-11T02:30:49.488Z,22.27
2023-02-11T02:33:33.971Z,26.03
2023-02-11T02:36:29.518Z,17.43
2023-02-11T02:39:12.612Z,22.13
2023-02-11T02:41:40.243Z,24.57
2023-02-11T02:44:09.302Z,21.10
2023-02-11T02:46:37.165Z,25.30
2023-02-11T02:49:07.224Z,29.70
2023-02-11T02:52:06.272Z,25.47
2023-02-11T02:55:16.366Z,26.33
2023-02-11T02:58:13.732Z,20.57
2023-02-11T03:01:01.820Z,30.80
2023-02-11T03:04:05.233Z,21.03
2023-02-11T03:07:06.221Z,24.77
2023-02-11T03:09:51.652Z,25.73
2023-02-11T03:12:20.128Z,27.83
2023-02-11T03:14:50.225Z,23.33
2023-02-11T03:17:18.017Z,20.63
2023-02-11T03:19:48.381Z,22.43
2023-02-11T03:22:26.100Z,29.13
2023-02-11T03:24:53.904Z,30.27
2023-02-11T03:27:41.861Z,29.60
2023-02-11T03:30:28.750Z,28.63
2023-02-11T03:33:10.748Z,23.17
2023-02-11T03:35:57.953Z,22.73
2023-02-11T03:38:38.708Z,35.23
2023-02-11T03:41:08.298Z,26.87
2023-02-11T03:43:42.129Z,28.13
2023-02-11T03:46:11.618Z,21.67
2023-02-11T03:48:53.007Z,23.53
2023-02-11T03:51:22.314Z,24.60
2023-02-11T03:53:53.348Z,26.90
2023-02-11T03:56:26.587Z,26.03
2023-02-11T03:58:53.861Z,26.10
2023-02-11T04:01:24.225Z,33.33
2023-02-11T04:03:53.956Z,23.60
2023-02-11T04:06:21.079Z,25.57
2023-02-11T04:08:48.218Z,24.63
2023-02-11T04:11:15.217Z,19.50
2023-02-11T04:13:42.321Z,23.23
2023-02-11T04:16:09.311Z,25.27
2023-02-11T04:18:49.857Z,27.10
2023-02-11T04:21:16.810Z,31.33
2023-02-11T04:23:43.911Z,29.33
2023-02-11T04:26:10.972Z,26.13
2023-02-11T04:28:37.969Z,25.23
2023-02-11T04:31:05.451Z,23.27
2023-02-11T04:33:32.512Z,29.47
2023-02-11T04:35:59.511Z,23.33
2023-02-11T04:38:26.809Z,21.33
2023-02-11T04:40:53.763Z,29.10
2023-02-11T04:43:20.738Z,25.90
2023-02-11T04:45:47.864Z,24.30
2023-02-11T04:48:14.934Z,20.40
2023-02-11T04:50:42.033Z,23.40
2023-02-11T04:53:09.064Z,24.17
2023-02-11T04:55:36.040Z,24.07
2023-02-11T04:58:02.991Z,32.70
2023-02-11T05:00:30.192Z,28.27
2023-02-11T05:02:57.229Z,23.67
2023-02-11T05:05:24.196Z,29.30
2023-02-11T05:07:51.165Z,29.00
2023-02-11T05:10:18.277Z,38.47
2023-02-11T05:12:45.222Z,29.47
2023-02-11T05:15:12.206Z,30.00
2023-02-11T05:17:39.150Z,27.47
2023-02-11T05:20:06.806Z,31.97
2023-02-11T05:22:33.737Z,29.60
2023-02-11T05:25:00.707Z,31.13
2023-02-11T05:27:27.698Z,28.40
2023-02-11T05:29:54.647Z,36.87
2023-02-11T05:32:21.652Z,34.57
2023-02-11T05:34:48.613Z,30.33
2023-02-11T05:37:15.714Z,30.83
2023-02-11T05:39:42.791Z,25.77
2023-02-11T05:42:09.862Z,29.93
2023-02-11T05:44:36.998Z,29.47
2023-02-11T05:47:04.259Z,35.23
2023-02-11T05:49:31.441Z,34.03
2023-02-11T05:51:58.393Z,34.23
2023-02-11T05:54:25.458Z,29.20
2023-02-11T05:56:52.464Z,30.87
2023-02-11T05:59:19.479Z,28.63
2023-02-11T06:01:46.590Z,31.47
2023-02-11T06:04:13.663Z,33.63
2023-02-11T06:06:40.703Z,40.47
2023-02-11T06:09:07.689Z,35.27
2023-02-11T06:11:34.670Z,37.17
2023-02-11T06:14:01.910Z,41.30
2023-02-11T06:16:29.080Z,45.30
2023-02-11T06:18:56.272Z,29.60
2023-02-11T06:21:26.465Z,30.60
2023-02-11T06:23:57.793Z,38.50
2023-02-11T06:26:24.845Z,41.10
2023-02-11T06:28:51.932Z,35.50
2023-02-11T06:31:19.256Z,32.90
2023-02-11T06:33:46.362Z,39.77
2023-02-11T06:36:20.575Z,38.33
2023-02-11T06:38:48.630Z,41.57
2023-02-11T06:41:20.085Z,39.87
2023-02-11T06:43:47.781Z,40.50
2023-02-11T06:46:15.719Z,44.97
2023-02-11T06:48:44.831Z,44.73
2023-02-11T06:51:13.784Z,39.73
2023-02-11T06:53:47.641Z,37.10
2023-02-11T06:56:24.125Z,47.97
2023-02-11T06:58:55.508Z,47.93
2023-02-11T07:01:24.207Z,44.00
2023-02-11T07:03:52.042Z,43.47
2023-02-11T07:06:27.748Z,43.57
2023-02-11T07:08:56.488Z,43.27
2023-02-11T07:11:28.726Z,45.07
2023-02-11T07:14:01.701Z,43.13
2023-02-11T07:16:28.936Z,51.17
2023-02-11T07:18:55.926Z,48.43
2023-02-11T07:21:24.386Z,48.57
2023-02-11T07:23:51.558Z,39.97
2023-02-11T07:26:23.096Z,46.60
2023-02-11T07:28:51.493Z,38.60
2023-02-11T07:31:28.271Z,49.13
2023-02-11T07:33:59.961Z,50.63
2023-02-11T07:36:29.128Z,49.10
2023-02-11T07:38:59.094Z,50.03
2023-02-11T07:41:27.476Z,52.07
2023-02-11T07:43:54.786Z,49.40
2023-02-11T07:46:25.445Z,54.93
2023-02-11T07:48:53.448Z,57.80
2023-02-11T07:51:27.191Z,52.10
2023-02-11T07:53:55.812Z,57.67
2023-02-11T07:56:23.717Z,61.77
2023-02-11T07:58:51.372Z,61.00
2023-02-11T08:01:25.926Z,56.77
2023-02-11T08:03:53.271Z,63.93
2023-02-11T08:06:23.608Z,61.97
2023-02-11T08:08:50.967Z,55.07
2023-02-11T08:11:27.451Z,59.13
2023-02-11T08:13:57.171Z,60.03
2023-02-11T08:16:31.607Z,56.33
2023-02-11T08:19:03.615Z,54.00
2023-02-11T08:21:30.826Z,56.60
2023-02-11T08:23:58.481Z,62.50
2023-02-11T08:26:28.877Z,57.40
2023-02-11T08:28:58.246Z,57.77
2023-02-11T08:31:33.351Z,55.90
2023-02-11T08:34:03.376Z,57.17
2023-02-11T08:36:36.901Z,56.47
2023-02-11T08:39:19.277Z,59.10
2023-02-11T08:41:54.784Z,57.13
2023-02-11T08:44:23.427Z,57.50
2023-02-11T08:46:51.246Z,46.57
2023-02-11T08:49:19.046Z,49.40
2023-02-11T08:51:47.231Z,49.37
2023-02-11T08:54:15.328Z,49.47
2023-02-11T08:56:42.691Z,47.53
2023-02-11T08:59:17.123Z,48.33
2023-02-11T09:01:44.645Z,53.10
2023-02-11T09:04:11.776Z,56.30
2023-02-11T09:06:38.902Z,49.47
2023-02-11T09:09:06.269Z,50.47
2023-02-11T09:11:35.725Z,51.07
2023-02-11T09:14:04.581Z,55.03
2023-02-11T09:16:35.785Z,49.70
2023-02-11T09:19:05.091Z,49.17
2023-02-11T09:21:32.352Z,46.83
2023-02-11T09:23:59.372Z,47.63
2023-02-11T09:26:30.467Z,45.83
2023-02-11T09:28:58.026Z,47.07
2023-02-11T09:31:28.324Z,45.20
2023-02-11T09:34:06.293Z,46.63
2023-02-11T09:36:38.581Z,43.80
2023-02-11T09:39:11.489Z,51.13
2023-02-11T09:42:08.697Z,45.23
2023-02-11T09:44:38.159Z,53.77
2023-02-11T09:47:29.386Z,46.20
2023-02-11T09:50:11.671Z,48.10
2023-02-11T09:52:45.042Z,46.47
2023-02-11T09:55:21.649Z,47.30
2023-02-11T09:57:48.889Z,49.40
2023-02-11T10:00:33.411Z,50.57
2023-02-11T10:03:14.579Z,54.43
2023-02-11T10:05:53.378Z,51.27
2023-02-11T10:08:59.320Z,50.43
2023-02-11T10:12:09.335Z,57.50
2023-02-11T10:15:06.202Z,50.47
2023-02-11T10:18:22.032Z,59.73
2023-02-11T10:21:23.444Z,58.87
2023-02-11T10:23:56.774Z,49.43
2023-02-11T10:26:24.207Z,56.03
2023-02-11T10:28:54.587Z,56.10
2023-02-11T10:31:38.381Z,50.80
2023-02-11T10:34:10.187Z,51.97
2023-02-11T10:36:41.285Z,52.60
2023-02-11T10:39:16.912Z,48.80
2023-02-11T10:41:59.673Z,51.43
2023-02-11T10:44:38.401Z,45.97
2023-02-11T10:47:29.923Z,45.87
2023-02-11T10:50:03.302Z,44.93
2023-02-11T10:52:31.372Z,44.17
2023-02-11T10:55:16.603Z,47.37
2023-02-11T10:57:52.719Z,49.77
2023-02-11T11:00:41.295Z,44.47
2023-02-11T11:03:21.950Z,49.70
2023-02-11T11:05:53.397Z,50.03
2023-02-11T11:08:20.658Z,45.50
2023-02-11T11:11:04.647Z,45.37
2023-02-11T11:13:41.790Z,44.13
2023-02-11T11:16:12.094Z,44.20
2023-02-11T11:18:47.818Z,42.13
2023-02-11T11:21:35.995Z,43.27
2023-02-11T11:24:04.375Z,41.07
2023-02-11T11:26:54.284Z,38.63
2023-02-11T11:29:46.064Z,41.67
2023-02-11T11:32:20.743Z,42.10
2023-02-11T11:34:57.253Z,44.13
2023-02-11T11:37:28.318Z,44.53
2023-02-11T11:40:13.715Z,40.10
2023-02-11T11:42:41.040Z,43.83
2023-02-11T11:45:19.756Z,43.17
2023-02-11T11:47:58.354Z,43.90
2023-02-11T11:50:36.061Z,41.73
2023-02-11T11:53:12.380Z,41.50
2023-02-11T11:56:23.441Z,47.00
2023-02-11T11:58:50.931Z,41.27
2023-02-11T12:01:33.978Z,43.63
2023-02-11T12:04:39.056Z,41.93
2023-02-11T12:07:17.539Z,42.03
2023-02-11T12:10:05.643Z,44.80
2023-02-11T12:13:20.148Z,43.30
2023-02-11T12:15:57.417Z,51.27
2023-02-11T12:18:47.289Z,48.17
2023-02-11T12:21:52.259Z,48.80
2023-02-11T12:25:19.339Z,48.60
2023-02-11T12:28:16.297Z,53.77
2023-02-11T12:31:01.383Z,46.93
2023-02-11T12:34:11.254Z,47.87
2023-02-11T12:37:07.903Z,44.10
2023-02-11T12:39:51.144Z,46.60
2023-02-11T12:42:55.965Z,47.37
2023-02-11T12:45:45.530Z,50.20
2023-02-11T12:49:06.137Z,51.60
2023-02-11T12:52:10.593Z,52.53
2023-02-11T12:55:31.948Z,54.93
2023-02-11T12:58:00.538Z,51.77
2023-02-11T13:00:47.122Z,46.80
2023-02-11T13:03:34.383Z,50.47
2023-02-11T13:06:53.981Z,53.77
2023-02-11T13:09:27.034Z,54.23
2023-02-11T13:12:20.884Z,56.53
2023-02-11T13:14:50.357Z,47.33
2023-02-11T13:17:31.572Z,42.40
2023-02-11T13:20:32.957Z,45.20
2023-02-11T13:23:47.153Z,43.77
2023-02-11T13:26:23.468Z,39.30
2023-02-11T13:29:30.453Z,46.37
2023-02-11T13:32:09.418Z,37.30
2023-02-11T13:34:42.420Z,40.63
2023-02-11T13:37:36.697Z,34.63
2023-02-11T13:40:26.033Z,33.83
2023-02-11T13:42:57.408Z,37.10
2023-02-11T13:45:36.537Z,36.87
2023-02-11T13:48:14.029Z,34.23
2023-02-11T13:50:51.185Z,39.47
2023-02-11T13:53:19.270Z,43.13
2023-02-11T13:55:50.043Z,36.37
2023-02-11T13:58:40.324Z,36.37
2023-02-11T14:01:09.093Z,37.57
2023-02-11T14:03:57.710Z,33.70
2023-02-11T14:07:07.109Z,35.93
2023-02-11T14:09:38.911Z,36.30
2023-02-11T14:12:30.203Z,37.43
2023-02-11T14:15:07.880Z,36.67
2023-02-11T14:17:35.291Z,40.90
2023-02-11T14:20:05.701Z,37.30
2023-02-11T14:22:49.666Z,42.03
2023-02-11T14:25:25.784Z,40.27
2023-02-11T14:28:15.460Z,41.57
2023-02-11T14:31:10.719Z,40.73
2023-02-11T14:34:06.730Z,40.50
2023-02-11T14:37:13.451Z,41.53
2023-02-11T14:39:54.991Z,39.43
2023-02-11T14:42:26.893Z,39.60
2023-02-11T14:44:57.761Z,41.10
2023-02-11T14:47:52.678Z,39.47
2023-02-11T14:50:35.012Z,38.57
2023-02-11T14:53:03.545Z,41.07
2023-02-11T14:55:38.122Z,36.27
2023-02-11T14:58:30.118Z,36.47
2023-02-11T15:01:19.083Z,44.30
2023-02-11T15:03:50.037Z,41.00
2023-02-11T15:06:24.612Z,43.57
2023-02-11T15:09:01.979Z,39.87
2023-02-11T15:11:35.203Z,41.73
2023-02-11T15:14:32.985Z,40.87
2023-02-11T15:17:06.356Z,45.67
2023-02-11T15:19:41.817Z,42.40
2023-02-11T15:22:30.262Z,44.00
2023-02-11T15:25:07.286Z,43.43
2023-02-11T15:27:58.664Z,45.83
2023-02-11T15:30:30.803Z,39.37
2023-02-11T15:33:03.584Z,41.57
2023-02-11T15:35:36.641Z,40.70
2023-02-11T15:38:04.911Z,41.97
2023-02-11T15:40:36.047Z,44.27
2023-02-11T15:43:07.082Z,43.17
2023-02-11T15:46:06.065Z,37.90
2023-02-11T15:48:43.108Z,45.10
2023-02-11T15:51:23.166Z,43.97
2023-02-11T15:53:56.937Z,40.43
2023-02-11T15:56:33.349Z,40.90
2023-02-11T15:59:12.962Z,40.87
2023-02-11T16:01:40.596Z,40.83
2023-02-11T16:04:20.960Z,44.23
2023-02-11T16:06:49.320Z,43.27
2023-02-11T16:09:16.149Z,41.93
2023-02-11T16:11:49.177Z,41.07
2023-02-11T16:14:31.029Z,42.13
2023-02-11T16:17:27.928Z,39.13
2023-02-11T16:19:55.474Z,41.60
2023-02-11T16:22:30.254Z,41.30
2023-02-11T16:24:59.551Z,43.87
2023-02-11T16:27:39.997Z,42.10
2023-02-11T16:30:29.796Z,44.23
2023-02-11T16:32:56.755Z,62.93
2023-02-11T16:35:23.760Z,48.33
2023-02-11T16:37:50.782Z,46.77
2023-02-11T16:40:19.074Z,42.43
2023-02-11T16:42:46.011Z,48.83
2023-02-11T16:45:13.706Z,46.73
2023-02-11T16:47:42.508Z,43.77
2023-02-11T16:50:22.539Z,44.40
2023-02-11T16:52:50.178Z,48.77
2023-02-11T16:55:17.368Z,49.03
2023-02-11T16:57:44.429Z,48.77
2023-02-11T17:00:16.025Z,47.43
2023-02-11T17:02:43.542Z,43.87
2023-02-11T17:05:20.340Z,49.97
2023-02-11T17:07:47.638Z,46.50
2023-02-11T17:10:23.509Z,50.07
2023-02-11T17:12:51.324Z,44.77
2023-02-11T17:15:18.382Z,47.07
2023-02-11T17:17:45.949Z,44.30
2023-02-11T17:20:14.478Z,43.77
2023-02-11T17:22:41.660Z,40.27
2023-02-11T17:25:09.067Z,46.83
2023-02-11T17:27:36.094Z,42.77
2023-02-11T17:30:03.480Z,42.13
2023-02-11T17:32:30.457Z,47.10
2023-02-11T17:34:57.416Z,43.07
2023-02-11T17:37:25.227Z,46.83
2023-02-11T17:39:52.171Z,47.60
2023-02-11T17:42:19.302Z,49.40
2023-02-11T17:44:46.783Z,46.77
2023-02-11T17:47:14.207Z,47.97
2023-02-11T17:49:41.569Z,48.80
2023-02-11T17:52:08.809Z,51.07
2023-02-11T17:54:35.780Z,60.60
2023-02-11T17:57:03.580Z,50.27
2023-02-11T17:59:35.335Z,47.70
2023-02-11T18:02:06.289Z,49.90
2023-02-11T18:04:33.646Z,52.57
2023-02-11T18:07:00.716Z,49.67
2023-02-11T18:09:27.659Z,48.40
2023-02-11T18:11:55.385Z,47.47
2023-02-11T18:14:23.104Z,48.07
2023-02-11T18:16:53.593Z,46.17
2023-02-11T18:19:21.548Z,52.17
2023-02-11T18:21:51.008Z,49.37
2023-02-11T18:24:18.837Z,52.03
2023-02-11T18:26:45.804Z,45.67
2023-02-11T18:29:12.756Z,49.30
2023-02-11T18:31:39.999Z,62.40
2023-02-11T18:34:10.596Z,59.40
2023-02-11T18:36:37.633Z,57.10
2023-02-11T18:39:06.130Z,59.13
2023-02-11T18:41:33.424Z,52.17
2023-02-11T18:44:03.700Z,54.77
2023-02-11T18:46:31.368Z,52.73
2023-02-11T18:48:58.429Z,48.13
2023-02-11T18:51:25.924Z,52.30
2023-02-11T18:53:53.140Z,59.30
2023-02-11T18:56:22.851Z,55.87
2023-02-11T18:58:51.489Z,53.87
2023-02-11T19:01:24.407Z,56.60
2023-02-11T19:03:51.855Z,53.53
2023-02-11T19:06:25.416Z,55.87
2023-02-11T19:08:55.910Z,61.50
2023-02-11T19:11:48.409Z,54.77
2023-02-11T19:14:19.805Z,67.27
2023-02-11T19:16:50.236Z,64.30
2023-02-11T19:19:19.313Z,61.20
2023-02-11T19:21:47.359Z,64.93
2023-02-11T19:24:16.302Z,60.13
2023-02-11T19:26:43.380Z,62.07
2023-02-11T19:29:10.692Z,59.50
2023-02-11T19:31:37.920Z,76.97
2023-02-11T19:34:07.419Z,78.63
2023-02-11T19:36:35.031Z,66.20
2023-02-11T19:39:03.832Z,62.10
2023-02-11T19:41:32.335Z,57.33
2023-02-11T19:44:00.194Z,60.60
2023-02-11T19:46:31.893Z,55.77
2023-02-11T19:49:00.818Z,49.67
2023-02-11T19:51:28.594Z,50.73
2023-02-11T19:53:55.616Z,50.67
2023-02-11T19:56:23.166Z,48.70
2023-02-11T19:58:50.313Z,50.57
2023-02-11T20:01:20.307Z,51.67
2023-02-11T20:03:51.931Z,54.07
2023-02-11T20:06:38.898Z,46.63
2023-02-11T20:09:11.346Z,45.83
2023-02-11T20:11:39.114Z,55.03
2023-02-11T20:14:10.614Z,57.27
2023-02-11T20:16:48.079Z,50.10
2023-02-11T20:19:19.502Z,53.77
2023-02-11T20:21:48.914Z,53.07
2023-02-11T20:24:18.033Z,60.00
2023-02-11T20:26:46.910Z,59.73
2023-02-11T20:29:15.710Z,57.20
2023-02-11T20:31:43.172Z,56.03
2023-02-11T20:34:12.115Z,50.20
2023-02-11T20:36:41.600Z,54.47
2023-02-11T20:39:10.737Z,51.47
2023-02-11T20:41:40.992Z,53.53
2023-02-11T20:44:10.577Z,56.77
2023-02-11T20:46:40.714Z,73.20
2023-02-11T20:49:09.956Z,66.07
2023-02-11T20:51:37.454Z,68.80
2023-02-11T20:54:06.410Z,76.93
2023-02-11T20:56:36.890Z,69.03
2023-02-11T20:59:06.108Z,65.50
2023-02-11T21:01:42.818Z,84.67
2023-02-11T21:04:20.568Z,86.80
2023-02-11T21:06:52.346Z,87.57
2023-02-11T21:09:23.406Z,95.47
2023-02-11T21:11:53.194Z,86.87
2023-02-11T21:14:22.367Z,69.03
2023-02-11T21:16:50.396Z,62.60
2023-02-11T21:19:17.430Z,61.53
2023-02-11T21:21:44.730Z,64.83
2023-02-11T21:24:12.275Z,66.10
2023-02-11T21:26:40.000Z,67.10
2023-02-11T21:29:08.305Z,59.73
2023-02-11T21:31:36.925Z,58.80
2023-02-11T21:34:05.063Z,68.13
2023-02-11T21:36:32.212Z,68.13
2023-02-11T21:39:01.693Z,67.20
2023-02-11T21:41:29.057Z,72.53
2023-02-11T21:43:56.590Z,70.57
2023-02-11T21:46:23.581Z,64.77
2023-02-11T21:48:51.038Z,63.97
2023-02-11T21:51:24.461Z,61.53
2023-02-11T21:53:57.890Z,61.70
2023-02-11T21:56:28.138Z,68.07
2023-02-11T21:58:57.059Z,66.27
2023-02-11T22:01:31.199Z,63.97
2023-02-11T22:03:58.932Z,69.83
2023-02-11T22:06:31.057Z,69.37
2023-02-11T22:08:59.456Z,62.97
2023-02-11T22:11:26.606Z,74.80
2023-02-11T22:13:56.294Z,72.57
2023-02-11T22:16:24.552Z,64.63
2023-02-11T22:18:52.014Z,65.67
2023-02-11T22:21:22.211Z,78.43
2023-02-11T22:23:49.905Z,70.80
2023-02-11T22:26:25.411Z,68.73
2023-02-11T22:28:53.793Z,67.30
2023-02-11T22:31:31.693Z,68.33
2023-02-11T22:34:00.198Z,74.20
2023-02-11T22:36:30.835Z,76.23
2023-02-11T22:39:03.328Z,69.83
2023-02-11T22:41:30.625Z,64.83
2023-02-11T22:43:57.910Z,70.50
2023-02-11T22:46:24.981Z,71.90
2023-02-11T22:48:53.448Z,70.57
2023-02-11T22:51:24.356Z,65.00
2023-02-11T22:53:54.978Z,65.80
2023-02-11T22:56:22.839Z,64.93
2023-02-11T22:58:50.864Z,65.73
2023-02-11T23:01:18.833Z,62.77
2023-02-11T23:03:46.044Z,55.10
2023-02-11T23:06:13.173Z,59.13
2023-02-11T23:08:42.944Z,60.07
2023-02-11T23:11:17.961Z,55.30
2023-02-11T23:13:46.962Z,62.33
2023-02-11T23:16:19.026Z,58.23
2023-02-11T23:18:48.616Z,58.47
2023-02-11T23:21:23.583Z,59.17
2023-02-11T23:24:03.037Z,52.87
2023-02-11T23:26:30.549Z,52.13
2023-02-11T23:28:59.235Z,55.03
2023-02-11T23:31:37.971Z,51.00
2023-02-11T23:34:06.277Z,59.17
2023-02-11T23:36:33.650Z,56.00
2023-02-11T23:39:01.699Z,46.40
2023-02-11T23:41:28.791Z,52.53
2023-02-11T23:43:57.996Z,56.93
2023-02-11T23:46:27.149Z,55.20
2023-02-11T23:48:54.795Z,52.83
2023-02-11T23:51:22.975Z,58.23
2023-02-11T23:53:52.947Z,57.37
2023-02-11T23:56:26.815Z,51.87
2023-02-11T23:58:57.712Z,55.97
